createdAt,value
2023-04-29T00:02:33.913Z,20.81
2023-04-29T00:05:19.725Z,20.81
2023-04-29T00:08:05.936Z,20.81
2023-04-29T00:10:51.451Z,20.81
2023-04-29T00:13:36.898Z,20.80
2023-04-29T00:16:22.171Z,20.80
2023-04-29T00:19:07.480Z,20.80
2023-04-29T00:21:54.691Z,20.80
2023-04-29T00:24:40.366Z,20.78
2023-04-29T00:27:25.549Z,20.79
2023-04-29T00:30:15.726Z,20.79
2023-04-29T00:33:01.151Z,20.76
2023-04-29T00:35:47.075Z,20.77
2023-04-29T00:38:32.751Z,20.76
2023-04-29T00:41:17.910Z,20.76
2023-04-29T00:44:03.352Z,20.77
2023-04-29T00:46:48.736Z,20.77
2023-04-29T00:49:35.842Z,20.77
2023-04-29T00:52:23.036Z,20.77
2023-04-29T00:55:09.120Z,20.77
2023-04-29T00:57:54.850Z,20.77
2023-04-29T01:00:41.772Z,20.78
2023-04-29T01:03:29.116Z,20.77
2023-04-29T01:06:21.567Z,20.79
2023-04-29T01:09:47.279Z,20.77
2023-04-29T01:12:37.110Z,20.77
2023-04-29T01:16:01.156Z,20.76
2023-04-29T01:18:54.154Z,20.77
2023-04-29T01:21:50.909Z,20.77
2023-04-29T01:24:36.545Z,20.77
2023-04-29T01:27:38.451Z,20.76
2023-04-29T01:30:47.691Z,20.75
2023-04-29T01:33:40.428Z,20.76
2023-04-29T01:37:03.118Z,20.77
2023-04-29T01:40:06.653Z,20.77
2023-04-29T01:43:09.574Z,20.77
2023-04-29T01:45:57.925Z,20.79
2023-04-29T01:48:43.565Z,20.79
2023-04-29T01:51:29.803Z,20.78
2023-04-29T01:54:15.939Z,20.78
2023-04-29T01:57:03.170Z,20.79
2023-04-29T01:59:57.363Z,20.80
2023-04-29T02:03:09.633Z,20.80
2023-04-29T02:06:01.366Z,20.81
2023-04-29T02:08:49.081Z,20.80
2023-04-29T02:11:35.790Z,20.81
2023-04-29T02:14:21.233Z,20.80
2023-04-29T02:17:06.692Z,20.80
2023-04-29T02:19:55.097Z,20.80
2023-04-29T02:22:41.062Z,20.80
2023-04-29T02:25:26.340Z,20.82
2023-04-29T02:28:12.150Z,20.82
2023-04-29T02:30:59.142Z,20.80
2023-04-29T02:33:44.327Z,20.82
2023-04-29T02:36:29.851Z,20.81
2023-04-29T02:39:15.230Z,20.81
2023-04-29T02:42:00.439Z,20.80
2023-04-29T02:44:45.763Z,20.77
2023-04-29T02:47:30.942Z,20.79
2023-04-29T02:50:16.373Z,20.77
2023-04-29T02:53:02.279Z,20.77
2023-04-29T02:55:48.487Z,20.77
2023-04-29T02:58:34.133Z,20.77
2023-04-29T03:01:19.465Z,20.78
2023-04-29T03:04:05.708Z,20.76
2023-04-29T03:06:51.578Z,20.77
2023-04-29T03:09:36.928Z,20.76
2023-04-29T03:12:22.762Z,20.76
2023-04-29T03:15:10.549Z,20.76
2023-04-29T03:17:56.345Z,20.76
2023-04-29T03:20:42.180Z,20.75
2023-04-29T03:23:28.081Z,20.75
2023-04-29T03:26:13.957Z,20.73
2023-04-29T03:28:59.563Z,20.74
2023-04-29T03:31:46.339Z,20.76
2023-04-29T03:34:32.443Z,20.79
2023-04-29T03:37:39.420Z,20.81
2023-04-29T03:40:42.965Z,20.83
2023-04-29T03:43:28.407Z,20.85
2023-04-29T03:46:13.778Z,20.88
2023-04-29T03:48:59.400Z,20.90
2023-04-29T03:51:47.669Z,20.94
2023-04-29T03:54:34.979Z,20.97
2023-04-29T03:57:20.897Z,21.00
2023-04-29T04:00:07.911Z,21.03
2023-04-29T04:03:00.340Z,21.07
2023-04-29T04:05:47.136Z,21.10
2023-04-29T04:08:34.560Z,21.12
2023-04-29T04:11:27.381Z,21.15
2023-04-29T04:14:19.056Z,21.17
2023-04-29T04:17:05.462Z,21.19
2023-04-29T04:19:51.736Z,21.22
2023-04-29T04:22:38.255Z,21.24
2023-04-29T04:25:33.994Z,21.28
2023-04-29T04:28:35.154Z,21.30
2023-04-29T04:31:25.907Z,21.32
2023-04-29T04:34:12.063Z,21.37
2023-04-29T04:36:57.584Z,21.39
2023-04-29T04:39:43.006Z,21.43
2023-04-29T04:42:31.642Z,21.45
2023-04-29T04:45:18.992Z,21.46
2023-04-29T04:48:08.810Z,21.49
2023-04-29T04:50:57.871Z,21.49
2023-04-29T04:53:44.727Z,21.52
2023-04-29T04:56:41.625Z,21.52
2023-04-29T04:59:27.579Z,21.53
2023-04-29T05:02:12.982Z,21.55
2023-04-29T05:04:59.270Z,21.56
2023-04-29T05:07:48.272Z,21.58
2023-04-29T05:10:37.614Z,21.62
2023-04-29T05:13:25.847Z,21.61
2023-04-29T05:16:12.880Z,21.64
2023-04-29T05:19:04.846Z,21.65
2023-04-29T05:21:55.518Z,21.67
2023-04-29T05:24:42.182Z,21.68
2023-04-29T05:27:27.385Z,21.67
2023-04-29T05:30:15.298Z,21.69
2023-04-29T05:33:01.835Z,21.71
2023-04-29T05:35:48.054Z,21.72
2023-04-29T05:38:33.454Z,21.74
2023-04-29T05:41:28.603Z,21.71
2023-04-29T05:44:14.685Z,21.73
2023-04-29T05:47:00.595Z,21.73
2023-04-29T05:49:46.789Z,21.73
2023-04-29T05:52:32.599Z,21.72
2023-04-29T05:55:17.987Z,21.72
2023-04-29T05:58:03.529Z,21.71
2023-04-29T06:00:49.717Z,21.71
2023-04-29T06:03:40.249Z,21.71
2023-04-29T06:06:45.938Z,21.72
2023-04-29T06:09:36.914Z,21.72
2023-04-29T06:12:22.398Z,21.71
2023-04-29T06:15:08.054Z,21.69
2023-04-29T06:17:53.629Z,21.68
2023-04-29T06:20:40.967Z,21.68
2023-04-29T06:23:26.591Z,21.67
2023-04-29T06:26:13.365Z,21.67
2023-04-29T06:28:59.122Z,21.66
2023-04-29T06:31:45.084Z,21.63
2023-04-29T06:34:31.041Z,21.62
2023-04-29T06:37:38.098Z,21.62
2023-04-29T06:40:47.624Z,21.57
2023-04-29T06:43:33.331Z,21.59
2023-04-29T06:46:30.976Z,21.60
2023-04-29T06:49:22.427Z,21.62
2023-04-29T06:52:08.129Z,21.64
2023-04-29T06:54:53.520Z,21.65
2023-04-29T06:57:39.027Z,21.67
2023-04-29T07:00:24.827Z,21.71
2023-04-29T07:03:13.729Z,21.71
2023-04-29T07:05:59.101Z,21.72
2023-04-29T07:08:45.036Z,21.74
2023-04-29T07:11:31.473Z,21.74
2023-04-29T07:14:16.706Z,21.77
2023-04-29T07:17:02.418Z,21.77
2023-04-29T07:19:48.655Z,21.79
2023-04-29T07:22:34.151Z,21.81
2023-04-29T07:25:19.793Z,21.83
2023-04-29T07:28:06.514Z,21.82
2023-04-29T07:30:52.823Z,21.82
2023-04-29T07:33:38.845Z,21.84
2023-04-29T07:36:24.076Z,21.85
2023-04-29T07:39:09.451Z,21.86
2023-04-29T07:41:55.996Z,21.86
2023-04-29T07:44:41.699Z,21.87
2023-04-29T07:47:27.255Z,21.88
2023-04-29T07:50:13.609Z,21.88
2023-04-29T07:53:00.618Z,21.90
2023-04-29T07:55:47.235Z,21.89
2023-04-29T07:58:33.097Z,21.88
2023-04-29T08:01:19.114Z,21.89
2023-04-29T08:04:05.427Z,21.88
2023-04-29T08:06:55.444Z,21.86
2023-04-29T08:09:40.655Z,21.86
2023-04-29T08:12:28.497Z,21.85
2023-04-29T08:15:13.998Z,21.87
2023-04-29T08:17:59.732Z,21.87
2023-04-29T08:20:48.301Z,21.88
2023-04-29T08:23:34.188Z,21.89
2023-04-29T08:26:22.589Z,21.89
2023-04-29T08:29:09.435Z,21.92
2023-04-29T08:31:55.703Z,21.95
2023-04-29T08:34:41.973Z,21.96
2023-04-29T08:37:27.830Z,21.98
2023-04-29T08:40:13.921Z,21.97
2023-04-29T08:43:00.298Z,21.97
2023-04-29T08:45:48.659Z,21.97
2023-04-29T08:48:37.331Z,21.99
2023-04-29T08:51:23.039Z,22.01
2023-04-29T08:54:08.558Z,22.04
2023-04-29T08:56:55.720Z,22.05
2023-04-29T08:59:41.679Z,22.05
2023-04-29T09:02:28.102Z,22.05
2023-04-29T09:05:14.033Z,22.05
2023-04-29T09:08:04.276Z,22.07
2023-04-29T09:10:53.777Z,22.04
2023-04-29T09:13:39.640Z,22.02
2023-04-29T09:16:24.901Z,22.03
2023-04-29T09:19:10.252Z,22.05
2023-04-29T09:21:58.250Z,22.05
2023-04-29T09:24:48.097Z,22.06
2023-04-29T09:27:35.107Z,22.06
2023-04-29T09:30:21.367Z,22.05
2023-04-29T09:33:09.275Z,22.01
2023-04-29T09:35:55.375Z,22.04
2023-04-29T09:38:56.150Z,22.03
2023-04-29T09:41:42.626Z,22.05
2023-04-29T09:44:36.010Z,22.04
2023-04-29T09:47:31.420Z,22.03
2023-04-29T09:50:19.588Z,22.03
2023-04-29T09:53:08.913Z,22.00
2023-04-29T09:55:54.215Z,22.01
2023-04-29T09:58:40.241Z,22.00
2023-04-29T10:01:27.619Z,21.99
2023-04-29T10:04:15.601Z,21.97
2023-04-29T10:07:02.672Z,21.97
2023-04-29T10:09:48.832Z,21.98
2023-04-29T10:12:38.864Z,21.95
2023-04-29T10:15:40.105Z,21.96
2023-04-29T10:18:49.320Z,21.96
2023-04-29T10:21:35.048Z,21.97
2023-04-29T10:24:22.575Z,21.97
2023-04-29T10:27:12.367Z,21.97
2023-04-29T10:30:00.885Z,21.97
2023-04-29T10:32:51.505Z,21.95
2023-04-29T10:35:38.019Z,21.94
2023-04-29T10:38:29.579Z,21.95
2023-04-29T10:41:20.946Z,21.97
2023-04-29T10:44:06.245Z,21.99
2023-04-29T10:47:21.592Z,22.02
2023-04-29T10:50:07.624Z,22.05
2023-04-29T10:52:53.027Z,22.09
2023-04-29T10:55:39.026Z,22.12
2023-04-29T10:58:37.810Z,22.18
2023-04-29T11:01:41.600Z,22.21
2023-04-29T11:04:27.529Z,22.25
2023-04-29T11:07:28.204Z,22.26
2023-04-29T11:10:14.005Z,22.26
2023-04-29T11:13:25.077Z,22.27
2023-04-29T11:16:11.586Z,22.29
2023-04-29T11:19:11.024Z,22.29
2023-04-29T11:22:30.164Z,22.32
2023-04-29T11:25:16.039Z,22.30
2023-04-29T11:28:02.187Z,22.28
2023-04-29T11:30:50.308Z,22.28
2023-04-29T11:33:35.954Z,22.27
2023-04-29T11:36:21.429Z,22.27
2023-04-29T11:39:08.179Z,22.24
2023-04-29T11:42:03.884Z,22.25
2023-04-29T11:44:53.433Z,22.27
2023-04-29T11:47:45.081Z,22.27
2023-04-29T11:50:32.794Z,22.29
2023-04-29T11:53:25.221Z,22.32
2023-04-29T11:56:11.696Z,22.33
2023-04-29T11:58:58.811Z,22.35
2023-04-29T12:01:44.477Z,22.37
2023-04-29T12:04:30.072Z,22.39
2023-04-29T12:07:16.959Z,22.44
2023-04-29T12:10:02.259Z,22.46
2023-04-29T12:12:48.418Z,22.43
2023-04-29T12:15:33.934Z,22.46
2023-04-29T12:18:20.040Z,22.45
2023-04-29T12:21:06.696Z,22.51
2023-04-29T12:23:52.645Z,22.53
2023-04-29T12:26:40.338Z,22.57
2023-04-29T12:29:26.669Z,22.57
2023-04-29T12:32:22.138Z,22.59
2023-04-29T12:35:16.862Z,22.59
2023-04-29T12:38:02.835Z,22.59
2023-04-29T12:40:49.591Z,22.59
2023-04-29T12:43:36.488Z,22.59
2023-04-29T12:46:23.690Z,22.59
2023-04-29T12:49:10.129Z,22.57
2023-04-29T12:51:55.440Z,22.56
2023-04-29T12:54:43.976Z,22.55
2023-04-29T12:57:30.517Z,22.52
2023-04-29T13:00:16.836Z,22.52
2023-04-29T13:03:02.494Z,22.49
2023-04-29T13:05:51.496Z,22.47
2023-04-29T13:08:37.901Z,22.46
2023-04-29T13:11:23.259Z,22.42
2023-04-29T13:14:08.990Z,22.40
2023-04-29T13:16:54.622Z,22.34
2023-04-29T13:19:51.072Z,22.34
2023-04-29T13:22:37.488Z,22.32
2023-04-29T13:25:23.154Z,22.30
2023-04-29T13:28:08.508Z,22.32
2023-04-29T13:30:54.427Z,22.29
2023-04-29T13:33:40.468Z,22.29
2023-04-29T13:36:28.346Z,22.31
2023-04-29T13:39:14.948Z,22.31
2023-04-29T13:42:00.536Z,22.34
2023-04-29T13:45:00.015Z,22.34
2023-04-29T13:48:06.783Z,22.34
2023-04-29T13:51:27.080Z,22.35
2023-04-29T13:54:48.176Z,22.37
2023-04-29T13:57:55.453Z,22.37
2023-04-29T14:00:31.639Z,22.35
2023-04-29T14:03:18.664Z,22.37
2023-04-29T14:06:04.122Z,22.35
2023-04-29T14:08:50.014Z,22.33
2023-04-29T14:11:36.910Z,22.34
2023-04-29T14:14:22.592Z,22.37
2023-04-29T14:17:07.749Z,22.40
2023-04-29T14:19:53.458Z,22.42
2023-04-29T14:22:40.141Z,22.44
2023-04-29T14:25:26.745Z,22.46
2023-04-29T14:28:13.935Z,22.45
2023-04-29T14:30:59.371Z,22.45
2023-04-29T14:33:44.716Z,22.46
2023-04-29T14:36:32.651Z,22.48
2023-04-29T14:39:18.467Z,22.51
2023-04-29T14:42:04.358Z,22.52
2023-04-29T14:44:49.644Z,22.52
2023-04-29T14:47:34.998Z,22.55
2023-04-29T14:50:20.643Z,22.55
2023-04-29T14:53:08.769Z,22.57
2023-04-29T14:55:54.347Z,22.57
2023-04-29T14:58:39.740Z,22.61
2023-04-29T15:01:26.155Z,22.61
2023-04-29T15:04:12.857Z,22.62
2023-04-29T15:07:01.018Z,22.63
2023-04-29T15:09:47.662Z,22.65
2023-04-29T15:12:34.006Z,22.65
2023-04-29T15:15:19.397Z,22.66
2023-04-29T15:18:06.328Z,22.66
2023-04-29T15:20:51.901Z,22.68
2023-04-29T15:23:37.631Z,22.68
2023-04-29T15:26:23.161Z,22.68
2023-04-29T15:29:08.698Z,22.66
2023-04-29T15:31:54.120Z,22.64
2023-04-29T15:34:39.358Z,22.65
2023-04-29T15:37:26.304Z,22.65
2023-04-29T15:40:12.471Z,22.63
2023-04-29T15:42:57.935Z,22.63
2023-04-29T15:45:43.377Z,22.64
2023-04-29T15:48:28.742Z,22.62
2023-04-29T15:51:15.168Z,22.62
2023-04-29T15:54:00.584Z,22.62
2023-04-29T15:56:45.708Z,22.62
2023-04-29T15:59:31.733Z,22.60
2023-04-29T16:02:17.344Z,22.61
2023-04-29T16:05:03.586Z,22.59
2023-04-29T16:07:49.105Z,22.59
2023-04-29T16:10:34.394Z,22.60
2023-04-29T16:13:19.921Z,22.60
2023-04-29T16:16:06.790Z,22.58
2023-04-29T16:18:52.065Z,22.57
2023-04-29T16:21:37.388Z,22.57
2023-04-29T16:24:22.920Z,22.57
2023-04-29T16:27:08.581Z,22.56
2023-04-29T16:29:55.670Z,22.57
2023-04-29T16:32:43.183Z,22.57
2023-04-29T16:35:30.963Z,22.55
2023-04-29T16:38:16.624Z,22.56
2023-04-29T16:41:02.519Z,22.56
2023-04-29T16:43:47.897Z,22.56
2023-04-29T16:46:33.413Z,22.54
2023-04-29T16:49:26.569Z,22.53
2023-04-29T16:52:12.756Z,22.53
2023-04-29T16:55:00.318Z,22.50
2023-04-29T16:57:45.776Z,22.52
2023-04-29T17:00:31.716Z,22.52
2023-04-29T17:03:17.251Z,22.50
2023-04-29T17:06:04.198Z,22.48
2023-04-29T17:08:51.534Z,22.46
2023-04-29T17:11:37.163Z,22.47
2023-04-29T17:14:23.055Z,22.46
2023-04-29T17:17:12.002Z,22.46
2023-04-29T17:19:57.696Z,22.47
2023-04-29T17:22:42.922Z,22.47
2023-04-29T17:25:28.222Z,22.45
2023-04-29T17:28:13.848Z,22.45
2023-04-29T17:31:01.244Z,22.46
2023-04-29T17:33:55.262Z,22.46
2023-04-29T17:36:41.225Z,22.47
2023-04-29T17:39:26.445Z,22.48
2023-04-29T17:42:12.200Z,22.49
2023-04-29T17:44:57.820Z,22.50
2023-04-29T17:47:44.052Z,22.51
2023-04-29T17:50:31.708Z,22.53
2023-04-29T17:53:17.964Z,22.49
2023-04-29T17:56:03.644Z,22.49
2023-04-29T17:58:49.268Z,22.49
2023-04-29T18:01:35.833Z,22.51
2023-04-29T18:04:21.531Z,22.49
2023-04-29T18:07:07.124Z,22.50
2023-04-29T18:09:53.270Z,22.48
2023-04-29T18:12:39.085Z,22.47
2023-04-29T18:15:24.513Z,22.48
2023-04-29T18:18:10.597Z,22.46
2023-04-29T18:20:59.290Z,22.45
2023-04-29T18:23:45.133Z,22.47
2023-04-29T18:26:31.216Z,22.48
2023-04-29T18:29:17.037Z,22.46
2023-04-29T18:32:02.410Z,22.47
2023-04-29T18:34:48.406Z,22.45
2023-04-29T18:37:33.913Z,22.45
2023-04-29T18:40:20.661Z,22.46
2023-04-29T18:43:06.267Z,22.44
2023-04-29T18:45:52.129Z,22.41
2023-04-29T18:48:39.019Z,22.42
2023-04-29T18:51:25.121Z,22.44
2023-04-29T18:54:11.226Z,22.44
2023-04-29T18:56:56.717Z,22.43
2023-04-29T18:59:42.637Z,22.41
2023-04-29T19:02:28.600Z,22.39
2023-04-29T19:05:14.413Z,22.41
2023-04-29T19:07:59.969Z,22.40
2023-04-29T19:10:46.595Z,22.39
2023-04-29T19:13:32.240Z,22.39
2023-04-29T19:16:18.119Z,22.40
2023-04-29T19:19:04.321Z,22.39
2023-04-29T19:21:49.879Z,22.41
2023-04-29T19:24:37.110Z,22.38
2023-04-29T19:27:23.339Z,22.38
2023-04-29T19:30:09.423Z,22.39
2023-04-29T19:32:55.686Z,22.38
2023-04-29T19:35:41.404Z,22.39
2023-04-29T19:38:26.958Z,22.40
2023-04-29T19:41:12.795Z,22.38
2023-04-29T19:43:58.099Z,22.38
2023-04-29T19:46:43.634Z,22.39
2023-04-29T19:49:29.262Z,22.38
2023-04-29T19:52:14.680Z,22.37
2023-04-29T19:55:00.099Z,22.37
2023-04-29T19:57:45.599Z,22.40
2023-04-29T20:00:31.499Z,22.38
2023-04-29T20:03:17.144Z,22.37
2023-04-29T20:06:02.525Z,22.35
2023-04-29T20:08:48.405Z,22.36
2023-04-29T20:11:33.713Z,22.36
2023-04-29T20:14:19.482Z,22.38
2023-04-29T20:17:05.014Z,22.36
2023-04-29T20:19:50.535Z,22.33
2023-04-29T20:22:36.660Z,22.36
2023-04-29T20:25:22.011Z,22.34
2023-04-29T20:28:08.992Z,22.33
2023-04-29T20:30:54.315Z,22.34
2023-04-29T20:33:39.423Z,22.32
2023-04-29T20:36:24.711Z,22.30
2023-04-29T20:39:10.872Z,22.32
2023-04-29T20:41:57.199Z,22.31
2023-04-29T20:44:43.250Z,22.28
2023-04-29T20:47:29.022Z,22.28
2023-04-29T20:50:14.392Z,22.26
2023-04-29T20:53:00.631Z,22.25
2023-04-29T20:55:46.660Z,22.22
2023-04-29T20:58:32.305Z,22.23
2023-04-29T21:01:19.504Z,22.24
2023-04-29T21:04:06.085Z,22.23
2023-04-29T21:06:52.723Z,22.21
2023-04-29T21:09:38.605Z,22.21
2023-04-29T21:12:24.873Z,22.23
2023-04-29T21:15:11.348Z,22.21
2023-04-29T21:17:56.902Z,22.23
2023-04-29T21:20:42.347Z,22.21
2023-04-29T21:23:27.856Z,22.21
2023-04-29T21:26:15.001Z,22.19
2023-04-29T21:29:01.169Z,22.21
2023-04-29T21:31:47.205Z,22.20
2023-04-29T21:34:32.792Z,22.20
2023-04-29T21:37:18.402Z,22.22
2023-04-29T21:40:04.864Z,22.23
2023-04-29T21:42:51.097Z,22.22
2023-04-29T21:45:36.575Z,22.22
2023-04-29T21:48:21.982Z,22.21
2023-04-29T21:51:08.794Z,22.21
2023-04-29T21:53:54.541Z,22.20
2023-04-29T21:56:39.756Z,22.20
2023-04-29T21:59:25.509Z,22.23
2023-04-29T22:02:23.000Z,22.26
2023-04-29T22:05:08.837Z,22.28
2023-04-29T22:07:54.881Z,22.26
2023-04-29T22:10:41.591Z,22.27
2023-04-29T22:13:26.859Z,22.26
2023-04-29T22:16:12.353Z,22.28
2023-04-29T22:18:58.039Z,22.28
2023-04-29T22:21:43.384Z,22.27
2023-04-29T22:24:28.682Z,22.27
2023-04-29T22:27:13.934Z,22.23
2023-04-29T22:29:59.436Z,22.24
2023-04-29T22:32:44.876Z,22.21
2023-04-29T22:35:30.307Z,22.20
2023-04-29T22:38:16.328Z,22.22
2023-04-29T22:41:01.841Z,22.21
2023-04-29T22:43:47.217Z,22.21
2023-04-29T22:46:33.532Z,22.21
2023-04-29T22:49:19.098Z,22.23
2023-04-29T22:52:04.749Z,22.23
2023-04-29T22:54:50.629Z,22.22
2023-04-29T22:57:36.133Z,22.21
2023-04-29T23:00:22.144Z,22.23
2023-04-29T23:03:07.386Z,22.21
2023-04-29T23:05:57.825Z,22.19
2023-04-29T23:08:44.663Z,22.16
2023-04-29T23:11:31.220Z,22.14
2023-04-29T23:14:16.907Z,22.13
2023-04-29T23:17:02.218Z,22.10
2023-04-29T23:19:47.672Z,22.09
2023-04-29T23:22:33.065Z,22.06
2023-04-29T23:25:18.374Z,22.04
2023-04-29T23:28:03.716Z,22.00
2023-04-29T23:30:49.258Z,21.97
2023-04-29T23:33:34.470Z,21.96
2023-04-29T23:36:19.610Z,21.95
2023-04-29T23:39:05.386Z,21.91
2023-04-29T23:41:51.465Z,21.90
2023-04-29T23:44:39.255Z,21.89
2023-04-29T23:47:24.834Z,21.85
2023-04-29T23:50:10.465Z,21.85
2023-04-29T23:52:56.133Z,21.83
2023-04-29T23:55:41.643Z,21.80
2023-04-29T23:58:27.963Z,21.78
